Time;durP1;ratioP1;P1;durP2;ratioP2;P2;SDS_P1;SDS_P2;PMS_P1;PMS_P2;Temp;Humidity;BMP_temperature;BMP_pressure;BME280_temperature;BME280_humidity;BME280_pressure;Samples;Min_cycle;Max_cycle;Signal;HPM_P1;HPM_P2
2024/03/03 00:01:46;;;;;;;8.70;4.80;;;12.30;95.70;;;;;;5089434;28;20028;-73
2024/03/03 00:04:11;;;;;;;10.43;5.45;;;12.30;95.70;;;;;;5092475;28;20444;-73
2024/03/03 00:06:37;;;;;;;9.43;5.78;;;12.20;95.70;;;;;;5103183;28;20016;-73
2024/03/03 00:09:06;;;;;;;10.10;5.45;;;12.30;95.70;;;;;;5091714;28;20043;-73
2024/03/03 00:11:32;;;;;;;9.10;5.72;;;12.20;95.80;;;;;;5101395;27;20036;-73
2024/03/03 00:13:58;;;;;;;11.07;6.20;;;12.20;95.70;;;;;;5088263;28;20028;-72
2024/03/03 00:16:24;;;;;;;14.63;6.47;;;12.20;95.70;;;;;;5102160;28;20104;-73
2024/03/03 00:18:49;;;;;;;11.05;6.20;;;12.20;95.80;;;;;;5097103;28;20068;-72
2024/03/03 00:21:15;;;;;;;12.30;6.38;;;12.20;95.60;;;;;;5093431;28;20064;-72
2024/03/03 00:23:41;;;;;;;11.52;5.45;;;12.20;95.60;;;;;;5105285;28;20055;-72
2024/03/03 00:26:07;;;;;;;11.02;6.28;;;12.20;95.60;;;;;;5103854;28;20034;-72
2024/03/03 00:28:32;;;;;;;13.40;6.00;;;12.20;95.60;;;;;;5087500;28;20490;-72
2024/03/03 00:30:58;;;;;;;12.40;6.35;;;12.20;95.70;;;;;;5087482;28;20047;-72
2024/03/03 00:33:24;;;;;;;13.52;6.30;;;12.20;95.60;;;;;;5070137;28;20031;-73
2024/03/03 00:35:52;;;;;;;13.75;7.05;;;12.20;95.60;;;;;;5079273;28;20067;-73
2024/03/03 00:38:18;;;;;;;12.80;6.65;;;12.20;95.70;;;;;;5099996;28;20031;-72
2024/03/03 00:40:44;;;;;;;13.23;5.43;;;12.10;95.70;;;;;;5098472;28;20055;-72
2024/03/03 00:43:10;;;;;;;9.75;6.13;;;12.20;95.70;;;;;;5069130;28;20470;-72
2024/03/03 00:45:36;;;;;;;9.45;5.63;;;12.10;95.70;;;;;;5088177;28;20034;-72
2024/03/03 00:48:02;;;;;;;12.18;6.85;;;12.10;95.70;;;;;;5071463;28;20024;-72
2024/03/03 00:50:28;;;;;;;13.07;7.40;;;12.10;95.70;;;;;;5087292;28;20067;-72
2024/03/03 00:52:56;;;;;;;10.77;6.50;;;12.10;95.70;;;;;;5072160;28;20054;-72
2024/03/03 00:55:25;;;;;;;9.27;4.75;;;12.10;95.70;;;;;;5073960;28;20039;-72
2024/03/03 00:57:52;;;;;;;11.80;6.35;;;12.10;95.70;;;;;;5069858;28;20514;-72
2024/03/03 01:00:18;;;;;;;12.68;6.78;;;12.10;95.70;;;;;;5083117;28;20024;-72
2024/03/03 01:02:44;;;;;;;11.43;6.60;;;12.10;95.60;;;;;;5095302;28;20069;-72
2024/03/03 01:05:11;;;;;;;9.82;6.15;;;12.10;96.00;;;;;;5103309;28;20031;-72
2024/03/03 01:07:38;;;;;;;12.75;6.10;;;12.10;95.70;;;;;;5082969;28;20019;-72
2024/03/03 01:10:07;;;;;;;10.05;5.70;;;12.00;95.70;;;;;;5099521;28;20031;-73
2024/03/03 01:12:33;;;;;;;12.75;6.57;;;12.00;95.80;;;;;;5082884;28;20032;-72
2024/03/03 01:14:58;;;;;;;12.27;6.13;;;11.90;95.80;;;;;;5108615;28;20034;-72
2024/03/03 01:17:24;;;;;;;10.00;5.18;;;11.80;95.90;;;;;;5071425;28;20032;-72
2024/03/03 01:19:50;;;;;;;12.23;5.80;;;11.70;96.10;;;;;;5088922;28;20071;-73
2024/03/03 01:22:15;;;;;;;14.02;5.47;;;11.80;96.20;;;;;;5079817;28;20031;-72
2024/03/03 01:24:41;;;;;;;13.75;6.45;;;11.70;96.20;;;;;;5082248;28;20024;-73
2024/03/03 01:27:07;;;;;;;9.88;5.68;;;11.70;96.20;;;;;;5085509;28;20362;-72
2024/03/03 01:29:32;;;;;;;9.65;5.28;;;11.70;96.50;;;;;;5095054;28;20051;-73
2024/03/03 01:31:58;;;;;;;10.38;5.13;;;11.70;96.20;;;;;;5102123;28;20040;-72
2024/03/03 01:34:25;;;;;;;11.45;6.22;;;11.70;96.20;;;;;;5098166;28;20055;-72
2024/03/03 01:36:52;;;;;;;10.02;6.00;;;11.70;96.20;;;;;;5088744;28;20032;-72
2024/03/03 01:39:18;;;;;;;9.73;5.88;;;11.70;96.30;;;;;;5099963;28;20035;-72
2024/03/03 01:41:45;;;;;;;12.30;6.53;;;11.70;96.30;;;;;;5096860;28;20028;-72
2024/03/03 01:44:11;;;;;;;12.43;5.85;;;11.60;96.30;;;;;;5100816;28;20495;-72
2024/03/03 01:46:38;;;;;;;12.60;6.63;;;11.70;96.30;;;;;;5098448;28;20050;-72
2024/03/03 01:49:04;;;;;;;9.45;5.93;;;11.70;96.30;;;;;;5091023;28;20611;-72
2024/03/03 01:51:30;;;;;;;11.40;5.53;;;11.70;96.20;;;;;;5082469;28;20065;-74
2024/03/03 01:53:56;;;;;;;11.40;5.72;;;11.70;96.20;;;;;;5072211;28;20503;-73
2024/03/03 01:56:24;;;;;;;10.23;5.32;;;11.70;96.10;;;;;;5046566;28;20060;-73
2024/03/03 01:58:51;;;;;;;8.63;5.57;;;11.80;96.20;;;;;;5048563;28;20028;-73
2024/03/03 02:01:19;;;;;;;13.02;6.00;;;11.70;96.20;;;;;;5065795;28;20039;-73
2024/03/03 02:03:49;;;;;;;10.93;5.85;;;11.80;96.30;;;;;;5064098;28;20111;-73
2024/03/03 02:06:17;;;;;;;10.20;5.70;;;11.70;96.20;;;;;;5068569;28;20174;-73
2024/03/03 02:08:42;;;;;;;9.82;5.35;;;11.70;96.20;;;;;;5057823;28;20029;-73
2024/03/03 02:11:08;;;;;;;13.02;6.35;;;11.80;96.20;;;;;;5058864;28;20043;-73
2024/03/03 02:13:34;;;;;;;9.70;5.57;;;11.80;96.20;;;;;;5052314;28;20021;-74
2024/03/03 02:16:00;;;;;;;11.00;5.82;;;11.90;96.10;;;;;;5053410;28;20041;-74
2024/03/03 02:18:25;;;;;;;9.63;5.60;;;11.80;96.10;;;;;;5064041;28;20021;-74
2024/03/03 02:20:51;;;;;;;9.70;6.25;;;11.90;96.10;;;;;;5050520;28;20606;-74
2024/03/03 02:23:17;;;;;;;12.68;6.05;;;11.80;96.10;;;;;;5050682;28;20025;-74
2024/03/03 02:25:43;;;;;;;11.02;5.93;;;11.80;96.10;;;;;;5049346;28;20049;-74
2024/03/03 02:28:12;;;;;;;12.55;5.65;;;11.90;96.20;;;;;;5052675;28;20074;-73
2024/03/03 02:30:38;;;;;;;14.23;6.35;;;11.90;96.10;;;;;;5059665;28;20048;-73
2024/03/03 02:33:03;;;;;;;9.77;6.07;;;11.90;96.00;;;;;;5066370;28;20020;-74
2024/03/03 02:35:29;;;;;;;13.65;6.85;;;12.00;95.90;;;;;;5057404;28;20504;-73
2024/03/03 02:37:55;;;;;;;11.90;6.10;;;12.00;95.90;;;;;;5055395;28;20075;-74
2024/03/03 02:40:20;;;;;;;10.77;5.70;;;12.00;95.90;;;;;;5058443;28;20544;-74
2024/03/03 02:42:46;;;;;;;14.40;7.82;;;12.00;95.90;;;;;;5058698;28;20039;-74
2024/03/03 02:45:11;;;;;;;19.70;6.88;;;12.00;95.90;;;;;;5056564;28;20452;-73
2024/03/03 02:47:37;;;;;;;8.55;5.30;;;12.00;95.90;;;;;;5064179;28;20380;-74
2024/03/03 02:50:04;;;;;;;12.07;6.38;;;12.10;95.90;;;;;;5049166;28;20128;-73
2024/03/03 02:52:30;;;;;;;10.20;5.68;;;12.00;95.90;;;;;;5059523;28;20468;-73
2024/03/03 02:54:55;;;;;;;9.93;4.55;;;12.00;95.90;;;;;;5060132;28;20053;-73
2024/03/03 02:57:21;;;;;;;9.73;6.28;;;12.00;96.00;;;;;;5052063;28;20044;-73
2024/03/03 02:59:47;;;;;;;11.55;5.72;;;12.00;95.90;;;;;;5065126;28;20029;-73
2024/03/03 03:02:12;;;;;;;9.82;5.90;;;12.00;95.90;;;;;;5047920;28;20064;-73
2024/03/03 03:04:38;;;;;;;9.77;5.85;;;12.10;95.90;;;;;;5049895;28;20035;-73
2024/03/03 03:07:04;;;;;;;11.40;5.43;;;12.10;96.00;;;;;;5061574;28;20032;-74
2024/03/03 03:09:30;;;;;;;11.98;6.70;;;12.10;95.90;;;;;;5067034;28;20033;-74
2024/03/03 03:11:56;;;;;;;11.13;6.65;;;12.00;96.00;;;;;;5053565;28;20099;-74
2024/03/03 03:14:24;;;;;;;10.75;5.88;;;12.10;96.00;;;;;;5061635;28;20016;-73
2024/03/03 03:16:50;;;;;;;9.68;6.13;;;12.10;95.90;;;;;;5060559;28;20033;-73
2024/03/03 03:19:15;;;;;;;10.82;5.93;;;12.10;96.00;;;;;;5050324;28;20033;-73
2024/03/03 03:21:41;;;;;;;10.38;5.72;;;12.10;95.90;;;;;;5048445;28;20037;-73
2024/03/03 03:24:07;;;;;;;14.90;5.47;;;12.20;95.90;;;;;;5061463;28;20044;-73
2024/03/03 03:26:33;;;;;;;11.05;6.07;;;12.20;95.80;;;;;;5056117;28;20024;-74
2024/03/03 03:28:58;;;;;;;13.13;6.13;;;12.20;95.80;;;;;;5057720;28;20028;-73
2024/03/03 03:31:24;;;;;;;13.27;5.72;;;12.20;95.90;;;;;;5047141;28;20047;-73
2024/03/03 03:33:50;;;;;;;13.10;6.47;;;12.10;95.90;;;;;;5050807;28;20108;-73
2024/03/03 03:36:17;;;;;;;11.93;6.65;;;12.10;95.90;;;;;;5052045;28;20028;-73
2024/03/03 03:38:43;;;;;;;12.10;6.13;;;12.10;95.90;;;;;;5067969;28;20032;-73
2024/03/03 03:41:09;;;;;;;10.40;5.72;;;12.10;95.90;;;;;;5063422;28;20479;-73
2024/03/03 03:43:34;;;;;;;12.82;7.30;;;12.10;96.00;;;;;;5059602;28;20024;-73
2024/03/03 03:46:00;;;;;;;10.63;6.07;;;12.10;96.00;;;;;;5051879;28;21769;-73
2024/03/03 03:48:28;;;;;;;11.15;6.28;;;12.10;95.90;;;;;;5067824;28;20503;-73
2024/03/03 03:50:54;;;;;;;11.55;6.82;;;12.10;96.00;;;;;;5056506;28;20047;-73
2024/03/03 03:53:21;;;;;;;13.98;7.13;;;12.10;96.00;;;;;;5069425;28;20032;-73
2024/03/03 03:55:47;;;;;;;11.93;5.80;;;12.00;96.10;;;;;;5101409;28;20067;-73
2024/03/03 03:58:13;;;;;;;11.48;5.75;;;12.00;96.10;;;;;;5097809;28;20096;-73
2024/03/03 04:00:39;;;;;;;12.32;6.53;;;12.00;96.10;;;;;;5092205;27;20055;-73
2024/03/03 04:03:06;;;;;;;13.93;7.07;;;12.00;96.10;;;;;;5092078;28;20039;-73
2024/03/03 04:05:34;;;;;;;14.57;8.05;;;12.00;96.10;;;;;;5092287;28;20050;-73
2024/03/03 04:08:00;;;;;;;13.20;6.60;;;12.00;96.10;;;;;;5103279;28;20031;-73
2024/03/03 04:10:25;;;;;;;19.88;7.07;;;12.00;96.20;;;;;;5092824;28;20036;-73
2024/03/03 04:12:51;;;;;;;14.05;7.35;;;12.10;96.10;;;;;;5087245;28;20497;-73
2024/03/03 04:15:17;;;;;;;18.33;8.23;;;12.10;96.10;;;;;;5096000;28;20039;-73
2024/03/03 04:17:43;;;;;;;16.75;8.40;;;12.10;96.00;;;;;;5095236;28;20039;-73
2024/03/03 04:20:09;;;;;;;16.05;8.60;;;12.10;96.00;;;;;;5088398;28;20039;-73
2024/03/03 04:22:35;;;;;;;15.40;7.88;;;12.10;95.90;;;;;;5101918;28;20107;-73
2024/03/03 04:25:02;;;;;;;15.13;7.57;;;12.10;96.30;;;;;;5087974;28;20114;-74
2024/03/03 04:27:30;;;;;;;13.50;7.25;;;12.10;96.00;;;;;;5101656;28;20034;-73
2024/03/03 04:29:56;;;;;;;19.35;7.93;;;12.10;96.10;;;;;;5096076;28;20040;-73
2024/03/03 04:32:22;;;;;;;19.70;9.25;;;12.10;96.10;;;;;;5094539;28;20032;-73
2024/03/03 04:34:48;;;;;;;18.60;8.75;;;12.00;96.10;;;;;;5099427;28;20425;-73
2024/03/03 04:37:13;;;;;;;16.67;9.25;;;12.00;96.10;;;;;;5095688;28;20035;-73
2024/03/03 04:39:39;;;;;;;17.35;8.50;;;12.00;96.20;;;;;;5101288;28;20058;-73
2024/03/03 04:42:05;;;;;;;17.58;8.95;;;11.90;96.30;;;;;;5093185;28;20494;-73
2024/03/03 04:44:31;;;;;;;17.08;8.15;;;12.00;96.20;;;;;;5092818;28;20383;-73
2024/03/03 04:46:57;;;;;;;20.65;9.10;;;12.00;96.20;;;;;;5087087;28;20036;-73
2024/03/03 04:49:23;;;;;;;16.38;9.18;;;12.00;96.30;;;;;;5087637;28;20027;-73
2024/03/03 04:51:49;;;;;;;18.23;8.95;;;11.90;96.30;;;;;;5093474;28;20051;-73
2024/03/03 04:54:14;;;;;;;19.15;10.23;;;11.90;96.20;;;;;;5092203;28;20105;-73
2024/03/03 04:56:40;;;;;;;19.50;10.50;;;12.00;96.20;;;;;;5093518;28;20107;-73
2024/03/03 04:59:06;;;;;;;15.75;8.90;;;12.10;96.10;;;;;;5092412;28;20036;-73
2024/03/03 05:01:33;;;;;;;19.50;9.82;;;12.10;96.10;;;;;;5100513;28;20028;-73
2024/03/03 05:03:59;;;;;;;16.83;9.18;;;12.10;96.00;;;;;;5088667;28;20471;-73
2024/03/03 05:06:24;;;;;;;18.38;10.13;;;12.10;96.00;;;;;;5088295;28;20123;-73
2024/03/03 05:08:50;;;;;;;19.00;9.50;;;12.10;96.00;;;;;;5088924;28;20111;-73
2024/03/03 05:11:16;;;;;;;23.27;11.32;;;12.10;96.00;;;;;;5102316;28;20082;-73
2024/03/03 05:13:42;;;;;;;19.25;10.00;;;12.10;96.00;;;;;;5095163;28;20395;-73
2024/03/03 05:16:08;;;;;;;24.02;10.38;;;12.00;96.00;;;;;;5094770;28;20032;-73
2024/03/03 05:18:34;;;;;;;19.45;9.52;;;12.00;96.00;;;;;;5106338;28;20034;-73
2024/03/03 05:21:00;;;;;;;20.30;10.15;;;12.00;96.00;;;;;;5108317;28;20031;-74
2024/03/03 05:23:25;;;;;;;17.48;10.18;;;12.00;96.00;;;;;;5094933;28;20092;-73
2024/03/03 05:25:51;;;;;;;21.27;11.52;;;12.00;96.20;;;;;;5106147;28;20772;-73
2024/03/03 05:28:18;;;;;;;23.50;12.38;;;11.90;96.10;;;;;;5100362;28;20066;-73
2024/03/03 05:30:44;;;;;;;22.05;12.07;;;11.90;96.20;;;;;;5086600;28;20385;-73
2024/03/03 05:33:11;;;;;;;22.02;11.55;;;11.90;96.10;;;;;;5087274;28;20032;-73
2024/03/03 05:35:38;;;;;;;22.83;11.40;;;12.00;96.10;;;;;;5100178;28;20047;-73
2024/03/03 05:38:04;;;;;;;18.15;10.02;;;12.00;96.00;;;;;;5093750;28;20390;-73
2024/03/03 05:40:30;;;;;;;21.90;11.45;;;11.90;96.00;;;;;;5097491;28;20093;-73
2024/03/03 05:42:55;;;;;;;24.45;12.52;;;12.00;96.10;;;;;;5098256;28;20039;-73
2024/03/03 05:45:21;;;;;;;26.38;11.25;;;11.90;96.00;;;;;;5092648;28;20028;-73
2024/03/03 05:47:46;;;;;;;20.98;11.73;;;12.00;96.00;;;;;;5102654;28;20467;-73
2024/03/03 05:50:12;;;;;;;22.08;11.27;;;11.90;96.00;;;;;;5096346;28;20035;-73
2024/03/03 05:52:38;;;;;;;22.23;12.07;;;11.90;96.10;;;;;;5099943;28;20035;-73
2024/03/03 05:55:08;;;;;;;25.98;12.23;;;11.80;96.30;;;;;;5090625;28;20054;-73
2024/03/03 05:57:34;;;;;;;22.77;11.82;;;11.80;96.10;;;;;;5090446;28;20470;-73
2024/03/03 05:59:59;;;;;;;24.42;12.40;;;11.70;96.20;;;;;;5093455;28;20032;-73
2024/03/03 06:02:25;;;;;;;21.25;11.82;;;11.80;96.20;;;;;;5098339;28;20475;-73
2024/03/03 06:04:51;;;;;;;27.48;11.90;;;11.80;96.20;;;;;;5097749;28;20028;-73
2024/03/03 06:07:17;;;;;;;18.67;10.05;;;11.80;96.30;;;;;;5106272;28;20036;-73
2024/03/03 06:09:43;;;;;;;26.08;12.00;;;11.70;96.30;;;;;;5093822;28;20040;-73
2024/03/03 06:12:09;;;;;;;21.85;12.75;;;11.70;96.40;;;;;;5093208;28;20123;-73
2024/03/03 06:14:35;;;;;;;20.40;12.10;;;11.70;96.40;;;;;;5095146;28;20028;-73
2024/03/03 06:17:00;;;;;;;23.98;12.20;;;11.70;96.40;;;;;;5092380;28;20093;-73
2024/03/03 06:19:26;;;;;;;25.00;11.50;;;11.70;96.40;;;;;;5091622;28;20039;-73
2024/03/03 06:21:52;;;;;;;23.30;12.50;;;11.70;96.30;;;;;;5102658;28;20031;-74
2024/03/03 06:24:21;;;;;;;25.42;12.85;;;11.70;96.40;;;;;;5091730;28;20032;-74
2024/03/03 06:26:46;;;;;;;27.23;14.13;;;11.70;96.30;;;;;;5090504;28;20040;-74
2024/03/03 06:29:12;;;;;;;28.15;13.93;;;11.70;96.30;;;;;;5103834;28;20028;-74
2024/03/03 06:31:46;;;;;;;26.13;13.35;;;11.70;96.20;;;;;;5097540;28;20042;-73
2024/03/03 06:34:12;;;;;;;26.23;12.88;;;11.80;96.00;;;;;;5095418;28;20141;-74
2024/03/03 06:36:38;;;;;;;27.30;14.32;;;11.80;95.80;;;;;;5099743;28;20031;-74
2024/03/03 06:39:04;;;;;;;24.98;13.60;;;11.90;95.60;;;;;;5101787;28;20055;-75
2024/03/03 06:41:30;;;;;;;25.85;12.23;;;11.90;95.50;;;;;;5101571;28;20050;-76
2024/03/03 06:43:56;;;;;;;23.73;13.02;;;11.90;95.60;;;;;;5101716;28;20478;-76
2024/03/03 06:46:22;;;;;;;27.67;13.82;;;11.90;95.50;;;;;;5104553;28;20383;-77
2024/03/03 06:48:48;;;;;;;34.25;14.50;;;12.00;95.40;;;;;;5095023;28;20139;-76
2024/03/03 06:51:14;;;;;;;29.00;13.52;;;12.00;95.40;;;;;;5090653;28;20043;-76
2024/03/03 06:53:40;;;;;;;26.48;12.00;;;12.00;95.40;;;;;;5100719;28;20146;-77
2024/03/03 06:56:16;;;;;;;25.65;13.15;;;11.90;95.50;;;;;;5096396;28;20031;-77
2024/03/03 06:58:45;;;;;;;26.77;13.20;;;11.90;95.60;;;;;;5107883;28;20038;-77
2024/03/03 07:01:11;;;;;;;24.90;13.43;;;11.80;95.80;;;;;;5106674;28;20039;-74
2024/03/03 07:04:07;;;;;;;26.95;13.68;;;11.70;95.90;;;;;;5108204;28;20462;-74
2024/03/03 07:06:33;;;;;;;25.40;12.88;;;11.70;96.00;;;;;;5107917;28;20161;-74
2024/03/03 07:09:00;;;;;;;22.08;11.60;;;11.70;96.00;;;;;;5096241;28;20028;-74
2024/03/03 07:11:26;;;;;;;27.75;13.10;;;11.70;96.00;;;;;;5089239;28;20407;-73
2024/03/03 07:13:51;;;;;;;26.48;12.65;;;11.70;96.10;;;;;;5094223;28;20027;-74
2024/03/03 07:16:17;;;;;;;29.33;13.43;;;11.70;96.00;;;;;;5103629;28;20075;-74
2024/03/03 07:18:44;;;;;;;22.02;12.35;;;11.70;96.10;;;;;;5098611;28;20046;-74
2024/03/03 07:21:10;;;;;;;26.20;12.70;;;11.60;96.10;;;;;;5102469;28;20134;-75
2024/03/03 07:23:36;;;;;;;23.70;12.52;;;11.70;96.10;;;;;;5101146;28;20043;-75
2024/03/03 07:26:01;;;;;;;23.17;11.68;;;11.60;96.10;;;;;;5090126;28;20032;-76
2024/03/03 07:28:27;;;;;;;26.95;12.75;;;11.60;96.20;;;;;;5090166;28;20032;-74
2024/03/03 07:30:53;;;;;;;22.98;12.57;;;11.60;96.20;;;;;;5096992;28;20043;-75
2024/03/03 07:33:18;;;;;;;29.15;13.63;;;11.60;96.20;;;;;;5101704;28;20055;-75
2024/03/03 07:35:47;;;;;;;27.48;14.60;;;11.60;96.30;;;;;;5100651;28;20040;-75
2024/03/03 07:38:12;;;;;;;26.80;14.73;;;11.60;96.40;;;;;;5096573;28;20034;-75
2024/03/03 07:40:38;;;;;;;26.88;14.73;;;11.60;96.30;;;;;;5091749;28;20027;-75
2024/03/03 07:43:05;;;;;;;27.55;13.93;;;11.70;96.30;;;;;;5093061;28;20106;-75
2024/03/03 07:45:30;;;;;;;29.25;13.57;;;11.70;96.20;;;;;;5107243;28;20024;-75
2024/03/03 07:47:56;;;;;;;27.77;13.68;;;11.70;96.10;;;;;;5100186;28;20376;-75
2024/03/03 07:50:22;;;;;;;28.85;15.32;;;11.70;96.20;;;;;;5089474;28;20040;-75
2024/03/03 07:52:48;;;;;;;26.90;12.70;;;11.70;96.10;;;;;;5088807;28;20049;-75
2024/03/03 07:55:13;;;;;;;27.80;13.43;;;11.70;96.10;;;;;;5092927;28;20044;-75
2024/03/03 07:57:39;;;;;;;28.98;14.32;;;11.70;96.20;;;;;;5097376;28;20028;-75
2024/03/03 08:00:06;;;;;;;30.40;14.50;;;11.70;96.30;;;;;;5088734;28;20032;-74
2024/03/03 08:02:38;;;;;;;28.00;12.45;;;11.60;96.30;;;;;;5097842;28;20031;-74
2024/03/03 08:05:04;;;;;;;29.48;14.32;;;11.60;96.50;;;;;;5093907;28;20055;-75
2024/03/03 08:07:30;;;;;;;29.33;14.32;;;11.50;96.70;;;;;;5090515;28;20067;-74
2024/03/03 08:09:56;;;;;;;24.58;12.93;;;11.60;96.70;;;;;;5091957;28;20043;-75
2024/03/03 08:12:23;;;;;;;25.88;14.75;;;11.50;96.80;;;;;;5100076;28;20024;-72
2024/03/03 08:14:49;;;;;;;24.63;12.13;;;11.50;97.00;;;;;;5088609;28;20051;-74
2024/03/03 08:17:14;;;;;;;20.85;10.30;;;11.50;97.10;;;;;;5101809;28;20063;-75
2024/03/03 08:19:40;;;;;;;24.55;13.82;;;11.40;97.20;;;;;;5094498;28;20028;-74
2024/03/03 08:22:06;;;;;;;20.42;11.57;;;11.40;97.30;;;;;;5097261;28;20034;-75
2024/03/03 08:24:35;;;;;;;29.05;13.80;;;11.50;97.60;;;;;;5097431;28;20028;-76
2024/03/03 08:27:00;;;;;;;30.60;14.65;;;11.50;97.40;;;;;;5089183;28;20610;-74
2024/03/03 08:29:26;;;;;;;33.58;11.90;;;11.50;97.40;;;;;;5087425;28;20126;-76
2024/03/03 08:31:52;;;;;;;27.38;14.13;;;11.60;97.40;;;;;;5088052;28;20027;-76
2024/03/03 08:34:17;;;;;;;33.80;15.70;;;11.50;97.30;;;;;;5090449;28;20080;-76
2024/03/03 08:36:43;;;;;;;28.60;14.90;;;11.60;97.20;;;;;;5101357;28;20384;-76
2024/03/03 08:39:11;;;;;;;32.20;14.15;;;11.60;97.40;;;;;;5088239;28;20100;-76
2024/03/03 08:41:40;;;;;;;27.48;13.82;;;11.60;97.40;;;;;;5108121;28;20036;-76
2024/03/03 08:44:06;;;;;;;26.30;14.25;;;11.70;97.40;;;;;;5099270;28;20055;-76
2024/03/03 08:46:32;;;;;;;31.20;13.52;;;11.70;97.40;;;;;;5101107;28;20028;-88
2024/03/03 08:48:58;;;;;;;29.05;14.60;;;11.70;97.40;;;;;;5088219;28;20028;-76
2024/03/03 08:51:23;;;;;;;27.20;12.48;;;11.70;97.40;;;;;;5088557;28;20059;-78
2024/03/03 08:53:49;;;;;;;21.05;11.10;;;11.80;97.50;;;;;;5087812;28;20052;-75
2024/03/03 08:56:15;;;;;;;24.73;12.88;;;11.80;97.40;;;;;;5092399;28;20032;-75
2024/03/03 08:58:40;;;;;;;33.92;13.52;;;11.70;97.50;;;;;;5098487;28;20104;-76
2024/03/03 09:01:08;;;;;;;26.20;13.10;;;11.80;97.40;;;;;;5092161;28;20081;-76
2024/03/03 09:03:35;;;;;;;23.52;12.20;;;11.80;97.40;;;;;;5101214;28;20483;-76
2024/03/03 09:06:00;;;;;;;23.27;13.18;;;11.90;97.30;;;;;;5094752;28;20027;-74
2024/03/03 09:08:29;;;;;;;20.55;10.73;;;11.90;97.40;;;;;;5100392;28;20094;-75
2024/03/03 09:11:01;;;;;;;27.98;13.52;;;11.90;97.60;;;;;;5099531;28;20043;-74
2024/03/03 09:13:28;;;;;;;27.10;13.02;;;11.90;97.60;;;;;;5093902;28;20028;-77
2024/03/03 09:15:53;;;;;;;27.70;13.30;;;11.90;97.60;;;;;;5108110;28;20440;-76
2024/03/03 09:18:19;;;;;;;25.10;13.45;;;11.90;97.70;;;;;;5095925;28;20114;-76
2024/03/03 09:20:44;;;;;;;24.20;13.45;;;12.00;97.60;;;;;;5096884;28;20055;-76
2024/03/03 09:23:12;;;;;;;25.13;12.90;;;12.00;97.60;;;;;;5102024;28;20036;-76
2024/03/03 09:25:38;;;;;;;19.38;9.48;;;12.10;97.50;;;;;;5100974;28;20024;-76
2024/03/03 09:28:04;;;;;;;25.00;12.40;;;12.10;97.50;;;;;;5106958;28;20035;-76
2024/03/03 09:30:29;;;;;;;23.42;12.13;;;12.00;97.50;;;;;;5101170;28;20131;-76
2024/03/03 09:32:55;;;;;;;26.20;12.88;;;12.10;97.70;;;;;;5091770;28;20019;-74
2024/03/03 09:35:21;;;;;;;27.38;13.43;;;12.10;97.70;;;;;;5099342;28;20039;-75
2024/03/03 09:37:49;;;;;;;25.02;11.32;;;12.10;97.70;;;;;;5101621;28;20036;-74
2024/03/03 09:40:15;;;;;;;25.05;13.00;;;12.10;97.80;;;;;;5110086;28;20063;-75
2024/03/03 09:42:45;;;;;;;28.45;14.77;;;12.10;97.90;;;;;;5093705;28;20035;-74
2024/03/03 09:45:13;;;;;;;26.45;14.40;;;12.20;97.80;;;;;;5092463;28;20035;-74
2024/03/03 09:47:40;;;;;;;27.05;13.80;;;12.30;97.50;;;;;;5100883;28;20023;-74
2024/03/03 09:50:10;;;;;;;27.33;13.63;;;12.40;97.40;;;;;;5099843;28;20043;-74
2024/03/03 09:52:40;;;;;;;25.80;12.20;;;12.40;97.30;;;;;;5096657;28;20031;-73
2024/03/03 09:55:10;;;;;;;25.85;13.98;;;12.40;97.30;;;;;;5102001;28;20285;-74
2024/03/03 09:57:38;;;;;;;27.77;11.82;;;12.50;97.40;;;;;;5103995;28;20490;-74
2024/03/03 10:00:06;;;;;;;23.25;13.05;;;12.40;97.50;;;;;;5098494;28;20027;-74
2024/03/03 10:02:39;;;;;;;27.20;12.82;;;12.50;97.50;;;;;;5097814;28;20036;-72
2024/03/03 10:05:07;;;;;;;24.92;13.57;;;12.50;97.50;;;;;;5109326;28;20076;-74
2024/03/03 10:07:40;;;;;;;25.75;15.02;;;12.50;97.50;;;;;;5096049;28;20019;-77
2024/03/03 10:10:09;;;;;;;27.40;11.63;;;12.60;97.50;;;;;;5105036;28;20035;-74
2024/03/03 10:12:35;;;;;;;26.35;12.77;;;12.70;97.30;;;;;;5090691;28;20361;-75
2024/03/03 10:15:04;;;;;;;25.45;12.32;;;12.70;97.20;;;;;;5104980;28;20067;-75
2024/03/03 10:17:30;;;;;;;27.92;14.18;;;12.70;97.20;;;;;;5101678;28;20031;-73
2024/03/03 10:20:06;;;;;;;24.98;13.23;;;12.70;97.30;;;;;;5100970;28;20081;-75
2024/03/03 10:22:33;;;;;;;27.33;14.25;;;12.80;97.20;;;;;;5098421;28;20024;-76
2024/03/03 10:25:15;;;;;;;30.73;14.07;;;12.80;97.20;;;;;;5095219;28;20031;-74
2024/03/03 10:27:43;;;;;;;24.13;12.70;;;12.80;97.20;;;;;;5098268;28;20072;-76
2024/03/03 10:30:11;;;;;;;26.05;14.00;;;12.80;97.20;;;;;;5101090;28;20031;-74
2024/03/03 10:32:37;;;;;;;27.75;13.15;;;12.90;97.20;;;;;;5103798;28;20516;-76
2024/03/03 10:35:04;;;;;;;29.48;13.98;;;12.90;97.20;;;;;;5104516;28;20032;-73
2024/03/03 10:37:30;;;;;;;27.77;14.30;;;12.90;97.20;;;;;;5096927;28;20036;-74
2024/03/03 10:39:56;;;;;;;28.50;14.52;;;12.90;97.20;;;;;;5090456;28;20039;-74
2024/03/03 10:42:22;;;;;;;23.63;13.70;;;13.00;97.20;;;;;;5092815;28;20016;-76
2024/03/03 10:44:48;;;;;;;31.23;15.63;;;13.00;97.20;;;;;;5091188;28;20467;-74
2024/03/03 10:47:14;;;;;;;25.70;13.23;;;13.00;97.20;;;;;;5096907;28;20035;-73
2024/03/03 10:49:41;;;;;;;31.20;15.23;;;13.10;97.20;;;;;;5099514;28;20028;-74
2024/03/03 10:52:09;;;;;;;27.38;14.40;;;13.00;97.30;;;;;;5100252;28;20142;-75
2024/03/03 10:54:35;;;;;;;27.38;14.02;;;13.10;97.20;;;;;;5093533;28;20122;-73
2024/03/03 10:57:01;;;;;;;25.83;13.13;;;13.00;97.20;;;;;;5095351;28;20631;-73
2024/03/03 10:59:31;;;;;;;27.02;14.60;;;13.10;97.30;;;;;;5090308;28;20034;-73
2024/03/03 11:01:57;;;;;;;27.30;14.68;;;13.00;97.40;;;;;;5097786;28;20035;-73
2024/03/03 11:04:29;;;;;;;27.80;12.10;;;13.10;97.40;;;;;;5096381;28;20065;-73
2024/03/03 11:07:06;;;;;;;29.05;13.27;;;13.10;97.50;;;;;;5095283;28;20028;-72
2024/03/03 11:09:33;;;;;;;32.25;14.23;;;13.00;97.60;;;;;;5109700;28;20027;-73
2024/03/03 11:12:03;;;;;;;25.50;13.50;;;13.00;97.70;;;;;;5094668;28;20075;-73
2024/03/03 11:14:39;;;;;;;26.58;15.32;;;13.10;97.60;;;;;;5097110;28;20035;-72
2024/03/03 11:17:14;;;;;;;30.65;14.95;;;13.20;97.50;;;;;;5090676;28;20027;-72
2024/03/03 11:19:47;;;;;;;27.27;14.32;;;13.30;97.40;;;;;;5099087;28;20023;-72
2024/03/03 11:22:21;;;;;;;27.70;14.10;;;13.20;97.50;;;;;;5101330;28;20088;-73
2024/03/03 11:24:53;;;;;;;27.33;14.05;;;13.20;97.60;;;;;;5104767;28;20077;-73
2024/03/03 11:27:24;;;;;;;29.23;14.60;;;13.30;97.50;;;;;;5104709;28;20033;-72
2024/03/03 11:29:50;;;;;;;25.23;13.07;;;13.40;97.40;;;;;;5094113;28;20055;-72
2024/03/03 11:32:18;;;;;;;30.40;13.40;;;13.40;97.50;;;;;;5090508;28;20055;-73
2024/03/03 11:34:45;;;;;;;27.48;13.60;;;13.40;97.50;;;;;;5100709;28;20032;-72
2024/03/03 11:37:12;;;;;;;24.55;12.00;;;13.40;97.60;;;;;;5105749;28;20036;-73
2024/03/03 11:39:59;;;;;;;33.40;15.00;;;13.50;97.70;;;;;;5095533;28;20110;-72
2024/03/03 11:42:40;;;;;;;25.50;13.23;;;13.50;97.70;;;;;;5101592;28;20231;-73
2024/03/03 11:45:07;;;;;;;26.15;13.68;;;13.50;97.60;;;;;;5089697;28;20037;-74
2024/03/03 11:47:36;;;;;;;27.65;14.23;;;13.60;97.60;;;;;;5099630;28;20031;-73
2024/03/03 11:50:21;;;;;;;28.60;15.75;;;13.60;97.60;;;;;;5088312;28;20028;-74
2024/03/03 11:52:54;;;;;;;30.30;15.98;;;13.70;97.50;;;;;;5093665;28;20040;-75
2024/03/03 11:55:23;;;;;;;32.05;15.65;;;13.70;97.50;;;;;;5099237;28;20047;-74
2024/03/03 11:57:55;;;;;;;30.17;17.23;;;13.70;97.60;;;;;;5090479;28;20120;-75
2024/03/03 12:00:26;;;;;;;32.88;16.13;;;13.70;97.60;;;;;;5099136;28;20130;-74
2024/03/03 12:02:53;;;;;;;28.48;16.33;;;13.70;97.70;;;;;;5104788;28;20197;-75
2024/03/03 12:05:19;;;;;;;30.85;16.38;;;13.70;97.80;;;;;;5090655;28;20076;-72
2024/03/03 12:07:50;;;;;;;26.25;14.90;;;13.80;97.80;;;;;;5091802;28;20438;-75
2024/03/03 12:10:23;;;;;;;35.50;14.30;;;13.80;97.70;;;;;;5101023;28;20027;-76
2024/03/03 12:12:54;;;;;;;29.42;15.65;;;13.90;97.70;;;;;;5102321;28;20122;-76
2024/03/03 12:15:22;;;;;;;24.75;13.85;;;13.90;97.60;;;;;;5093722;28;20501;-74
2024/03/03 12:17:51;;;;;;;30.67;15.45;;;14.00;97.70;;;;;;5096418;28;20039;-74
2024/03/03 12:20:22;;;;;;;34.17;15.95;;;14.00;97.80;;;;;;5091194;28;20038;-74
2024/03/03 12:22:49;;;;;;;30.20;15.43;;;13.90;97.80;;;;;;5098383;28;20383;-74
2024/03/03 12:25:17;;;;;;;29.83;13.73;;;13.90;97.90;;;;;;5093905;28;20020;-73
2024/03/03 12:27:53;;;;;;;25.98;15.02;;;13.80;98.00;;;;;;5100449;28;20059;-80
2024/03/03 12:30:22;;;;;;;25.00;13.77;;;14.00;98.00;;;;;;5102497;28;20050;-74